sensor_id;sensor_type;location;lat;lon;timestamp;P1;durP1;ratioP1;P2;durP2;ratioP2
80576;SDS011;69937;52.420;10.538;2024-03-23T00:52:43;11.77;;;6.38;;
80576;SDS011;69937;52.420;10.538;2024-03-23T00:57:45;10.88;;;4.45;;
80576;SDS011;69937;52.420;10.538;2024-03-23T01:02:46;10.27;;;6.18;;
80576;SDS011;69937;52.420;10.538;2024-03-23T01:07:46;14.43;;;4.97;;
80576;SDS011;69937;52.420;10.538;2024-03-23T01:12:47;7.68;;;4.03;;
80576;SDS011;69937;52.420;10.538;2024-03-23T01:17:47;5.00;;;4.10;;
80576;SDS011;69937;52.420;10.538;2024-03-23T01:22:48;6.03;;;4.18;;
80576;SDS011;69937;52.420;10.538;2024-03-23T01:27:49;4.55;;;3.67;;
80576;SDS011;69937;52.420;10.538;2024-03-23T01:32:49;6.28;;;4.03;;
80576;SDS011;69937;52.420;10.538;2024-03-23T01:37:50;5.82;;;4.32;;
80576;SDS011;69937;52.420;10.538;2024-03-23T01:42:57;7.20;;;4.22;;
80576;SDS011;69937;52.420;10.538;2024-03-23T01:47:58;6.32;;;4.32;;
80576;SDS011;69937;52.420;10.538;2024-03-23T01:53:00;7.78;;;4.20;;
80576;SDS011;69937;52.420;10.538;2024-03-23T01:58:02;8.20;;;4.80;;
80576;SDS011;69937;52.420;10.538;2024-03-23T02:03:11;6.45;;;4.50;;
80576;SDS011;69937;52.420;10.538;2024-03-23T02:08:25;7.53;;;3.92;;
80576;SDS011;69937;52.420;10.538;2024-03-23T02:13:26;9.43;;;5.03;;
80576;SDS011;69937;52.420;10.538;2024-03-23T02:18:27;9.73;;;4.72;;
80576;SDS011;69937;52.420;10.538;2024-03-23T02:23:27;6.35;;;4.53;;
80576;SDS011;69937;52.420;10.538;2024-03-23T02:28:28;7.15;;;4.63;;
80576;SDS011;69937;52.420;10.538;2024-03-23T02:33:28;8.77;;;4.30;;
80576;SDS011;69937;52.420;10.538;2024-03-23T02:38:29;7.57;;;4.10;;
80576;SDS011;69937;52.420;10.538;2024-03-23T02:43:30;8.50;;;5.38;;
80576;SDS011;69937;52.420;10.538;2024-03-23T02:48:30;6.05;;;3.70;;
80576;SDS011;69937;52.420;10.538;2024-03-23T02:53:31;6.80;;;4.30;;
80576;SDS011;69937;52.420;10.538;2024-03-23T02:58:31;14.35;;;4.72;;
80576;SDS011;69937;52.420;10.538;2024-03-23T03:03:32;5.28;;;4.53;;
80576;SDS011;69937;52.420;10.538;2024-03-23T03:08:32;13.18;;;5.18;;
80576;SDS011;69937;52.420;10.538;2024-03-23T03:13:33;8.38;;;4.70;;
80576;SDS011;69937;52.420;10.538;2024-03-23T03:18:33;8.43;;;5.07;;
80576;SDS011;69937;52.420;10.538;2024-03-23T03:23:35;7.30;;;4.05;;
80576;SDS011;69937;52.420;10.538;2024-03-23T03:28:37;7.20;;;4.03;;
80576;SDS011;69937;52.420;10.538;2024-03-23T03:33:37;8.73;;;4.07;;
80576;SDS011;69937;52.420;10.538;2024-03-23T03:38:38;8.48;;;4.53;;
80576;SDS011;69937;52.420;10.538;2024-03-23T03:43:38;7.45;;;4.90;;
80576;SDS011;69937;52.420;10.538;2024-03-23T03:48:39;5.63;;;5.10;;
80576;SDS011;69937;52.420;10.538;2024-03-23T03:53:40;10.15;;;5.15;;
80576;SDS011;69937;52.420;10.538;2024-03-23T03:58:40;9.07;;;4.78;;
80576;SDS011;69937;52.420;10.538;2024-03-23T04:03:42;8.65;;;4.75;;
80576;SDS011;69937;52.420;10.538;2024-03-23T04:08:43;6.15;;;4.97;;
80576;SDS011;69937;52.420;10.538;2024-03-23T04:13:44;5.13;;;4.25;;
80576;SDS011;69937;52.420;10.538;2024-03-23T04:18:44;5.85;;;4.78;;
80576;SDS011;69937;52.420;10.538;2024-03-23T04:23:47;10.32;;;5.05;;
80576;SDS011;69937;52.420;10.538;2024-03-23T04:28:48;6.55;;;4.75;;
80576;SDS011;69937;52.420;10.538;2024-03-23T04:33:48;7.65;;;4.60;;
80576;SDS011;69937;52.420;10.538;2024-03-23T04:38:49;9.32;;;4.22;;
80576;SDS011;69937;52.420;10.538;2024-03-23T04:43:52;9.15;;;4.82;;
80576;SDS011;69937;52.420;10.538;2024-03-23T04:48:53;8.18;;;4.80;;
80576;SDS011;69937;52.420;10.538;2024-03-23T04:53:53;9.25;;;5.05;;
80576;SDS011;69937;52.420;10.538;2024-03-23T04:58:54;7.00;;;4.95;;
80576;SDS011;69937;52.420;10.538;2024-03-23T05:03:54;7.20;;;5.05;;
80576;SDS011;69937;52.420;10.538;2024-03-23T05:08:55;8.45;;;4.85;;
80576;SDS011;69937;52.420;10.538;2024-03-23T05:13:56;5.97;;;4.50;;
80576;SDS011;69937;52.420;10.538;2024-03-23T05:18:56;11.15;;;4.68;;
80576;SDS011;69937;52.420;10.538;2024-03-23T05:23:57;6.68;;;4.30;;
80576;SDS011;69937;52.420;10.538;2024-03-23T05:28:57;5.13;;;3.80;;
80576;SDS011;69937;52.420;10.538;2024-03-23T05:33:58;8.48;;;4.40;;
80576;SDS011;69937;52.420;10.538;2024-03-23T05:38:58;8.88;;;4.07;;
80576;SDS011;69937;52.420;10.538;2024-03-23T05:44:02;6.95;;;4.05;;
80576;SDS011;69937;52.420;10.538;2024-03-23T05:49:03;8.02;;;4.10;;
80576;SDS011;69937;52.420;10.538;2024-03-23T05:54:03;6.15;;;3.92;;
80576;SDS011;69937;52.420;10.538;2024-03-23T05:59:04;7.65;;;3.97;;
80576;SDS011;69937;52.420;10.538;2024-03-23T06:04:05;8.75;;;4.60;;
80576;SDS011;69937;52.420;10.538;2024-03-23T06:09:06;12.07;;;4.68;;
80576;SDS011;69937;52.420;10.538;2024-03-23T06:14:07;6.90;;;3.30;;
80576;SDS011;69937;52.420;10.538;2024-03-23T06:19:07;7.80;;;3.95;;
80576;SDS011;69937;52.420;10.538;2024-03-23T06:24:08;8.75;;;4.07;;
80576;SDS011;69937;52.420;10.538;2024-03-23T06:29:09;6.40;;;3.65;;
80576;SDS011;69937;52.420;10.538;2024-03-23T06:34:09;8.00;;;4.35;;
80576;SDS011;69937;52.420;10.538;2024-03-23T06:39:10;6.68;;;4.22;;
80576;SDS011;69937;52.420;10.538;2024-03-23T06:44:14;4.90;;;3.90;;
80576;SDS011;69937;52.420;10.538;2024-03-23T06:49:15;5.72;;;4.22;;
80576;SDS011;69937;52.420;10.538;2024-03-23T06:54:18;5.50;;;3.63;;
80576;SDS011;69937;52.420;10.538;2024-03-23T06:59:19;6.03;;;3.83;;
80576;SDS011;69937;52.420;10.538;2024-03-23T07:04:20;3.92;;;3.67;;
80576;SDS011;69937;52.420;10.538;2024-03-23T07:09:20;8.65;;;4.50;;
80576;SDS011;69937;52.420;10.538;2024-03-23T07:14:26;9.10;;;4.80;;
80576;SDS011;69937;52.420;10.538;2024-03-23T07:19:26;5.43;;;4.13;;
80576;SDS011;69937;52.420;10.538;2024-03-23T07:24:28;8.90;;;3.65;;
80576;SDS011;69937;52.420;10.538;2024-03-23T07:29:31;8.00;;;3.75;;
80576;SDS011;69937;52.420;10.538;2024-03-23T07:34:31;8.13;;;4.15;;
80576;SDS011;69937;52.420;10.538;2024-03-23T07:39:32;4.15;;;2.85;;
80576;SDS011;69937;52.420;10.538;2024-03-23T07:44:34;5.07;;;3.22;;
80576;SDS011;69937;52.420;10.538;2024-03-23T07:49:34;6.45;;;3.78;;
80576;SDS011;69937;52.420;10.538;2024-03-23T07:54:35;6.00;;;3.90;;
80576;SDS011;69937;52.420;10.538;2024-03-23T07:59:35;8.07;;;3.55;;
80576;SDS011;69937;52.420;10.538;2024-03-23T08:04:36;6.80;;;3.88;;
80576;SDS011;69937;52.420;10.538;2024-03-23T08:09:36;7.10;;;4.38;;
80576;SDS011;69937;52.420;10.538;2024-03-23T08:14:37;9.45;;;4.20;;
80576;SDS011;69937;52.420;10.538;2024-03-23T08:19:38;4.90;;;3.63;;
80576;SDS011;69937;52.420;10.538;2024-03-23T08:24:38;8.30;;;3.75;;
80576;SDS011;69937;52.420;10.538;2024-03-23T08:29:39;11.15;;;4.18;;
80576;SDS011;69937;52.420;10.538;2024-03-23T08:34:40;7.55;;;4.28;;
80576;SDS011;69937;52.420;10.538;2024-03-23T08:39:42;6.38;;;3.70;;
80576;SDS011;69937;52.420;10.538;2024-03-23T08:44:43;5.13;;;3.65;;
80576;SDS011;69937;52.420;10.538;2024-03-23T08:49:46;4.60;;;3.45;;
80576;SDS011;69937;52.420;10.538;2024-03-23T08:54:47;10.60;;;5.75;;
80576;SDS011;69937;52.420;10.538;2024-03-23T08:59:47;8.02;;;3.97;;
80576;SDS011;69937;52.420;10.538;2024-03-23T09:04:48;8.77;;;3.45;;
80576;SDS011;69937;52.420;10.538;2024-03-23T09:09:48;6.13;;;3.63;;
80576;SDS011;69937;52.420;10.538;2024-03-23T09:14:52;15.35;;;3.45;;
80576;SDS011;69937;52.420;10.538;2024-03-23T09:19:53;4.35;;;3.95;;
80576;SDS011;69937;52.420;10.538;2024-03-23T09:24:54;11.07;;;3.97;;
80576;SDS011;69937;52.420;10.538;2024-03-23T09:29:54;13.23;;;4.07;;
80576;SDS011;69937;52.420;10.538;2024-03-23T09:34:55;13.10;;;4.15;;
80576;SDS011;69937;52.420;10.538;2024-03-23T09:39:55;11.98;;;4.45;;
80576;SDS011;69937;52.420;10.538;2024-03-23T09:44:57;10.73;;;4.85;;
80576;SDS011;69937;52.420;10.538;2024-03-23T09:49:59;15.45;;;4.38;;
80576;SDS011;69937;52.420;10.538;2024-03-23T09:55:00;14.43;;;5.63;;
80576;SDS011;69937;52.420;10.538;2024-03-23T10:00:02;16.48;;;4.32;;
80576;SDS011;69937;52.420;10.538;2024-03-23T10:05:03;8.95;;;4.18;;
80576;SDS011;69937;52.420;10.538;2024-03-23T10:10:10;6.65;;;4.10;;
80576;SDS011;69937;52.420;10.538;2024-03-23T10:15:18;8.95;;;3.15;;
80576;SDS011;69937;52.420;10.538;2024-03-23T10:20:23;9.90;;;3.88;;
80576;SDS011;69937;52.420;10.538;2024-03-23T10:25:24;5.65;;;2.83;;
80576;SDS011;69937;52.420;10.538;2024-03-23T10:30:24;9.25;;;2.75;;
80576;SDS011;69937;52.420;10.538;2024-03-23T10:35:28;10.52;;;2.97;;
80576;SDS011;69937;52.420;10.538;2024-03-23T10:40:28;17.55;;;2.97;;
80576;SDS011;69937;52.420;10.538;2024-03-23T10:45:30;10.80;;;2.20;;
80576;SDS011;69937;52.420;10.538;2024-03-23T10:50:31;7.80;;;2.63;;
80576;SDS011;69937;52.420;10.538;2024-03-23T10:55:32;6.60;;;2.42;;
80576;SDS011;69937;52.420;10.538;2024-03-23T11:00:34;9.90;;;2.90;;
80576;SDS011;69937;52.420;10.538;2024-03-23T11:05:37;10.40;;;2.45;;
80576;SDS011;69937;52.420;10.538;2024-03-23T11:10:37;6.15;;;1.98;;
80576;SDS011;69937;52.420;10.538;2024-03-23T11:15:38;8.70;;;1.88;;
80576;SDS011;69937;52.420;10.538;2024-03-23T11:20:38;5.70;;;1.92;;
80576;SDS011;69937;52.420;10.538;2024-03-23T11:25:39;7.00;;;1.75;;
80576;SDS011;69937;52.420;10.538;2024-03-23T11:30:39;6.57;;;2.08;;
80576;SDS011;69937;52.420;10.538;2024-03-23T11:35:40;11.20;;;1.67;;
80576;SDS011;69937;52.420;10.538;2024-03-23T11:40:42;7.55;;;1.13;;
80576;SDS011;69937;52.420;10.538;2024-03-23T11:50:45;2.53;;;1.20;;
80576;SDS011;69937;52.420;10.538;2024-03-23T11:55:48;4.35;;;1.80;;
80576;SDS011;69937;52.420;10.538;2024-03-23T12:01:02;2.17;;;1.40;;
80576;SDS011;69937;52.420;10.538;2024-03-23T12:06:04;1.98;;;1.45;;
80576;SDS011;69937;52.420;10.538;2024-03-23T12:16:09;2.83;;;0.80;;
80576;SDS011;69937;52.420;10.538;2024-03-23T12:21:11;7.72;;;1.13;;
80576;SDS011;69937;52.420;10.538;2024-03-23T12:26:11;2.85;;;1.20;;
80576;SDS011;69937;52.420;10.538;2024-03-23T12:31:12;6.35;;;1.40;;
80576;SDS011;69937;52.420;10.538;2024-03-23T12:36:13;1.73;;;1.45;;
80576;SDS011;69937;52.420;10.538;2024-03-23T12:41:14;4.57;;;1.98;;
80576;SDS011;69937;52.420;10.538;2024-03-23T12:46:15;2.97;;;1.85;;
80576;SDS011;69937;52.420;10.538;2024-03-23T12:51:15;5.72;;;2.25;;
80576;SDS011;69937;52.420;10.538;2024-03-23T12:56:16;4.07;;;2.83;;
80576;SDS011;69937;52.420;10.538;2024-03-23T13:01:17;2.33;;;1.90;;
80576;SDS011;69937;52.420;10.538;2024-03-23T13:06:19;3.28;;;2.25;;
80576;SDS011;69937;52.420;10.538;2024-03-23T13:11:19;3.60;;;2.47;;
80576;SDS011;69937;52.420;10.538;2024-03-23T13:16:20;2.67;;;2.38;;
80576;SDS011;69937;52.420;10.538;2024-03-23T13:21:21;2.45;;;2.03;;
80576;SDS011;69937;52.420;10.538;2024-03-23T13:26:21;1.77;;;1.25;;
80576;SDS011;69937;52.420;10.538;2024-03-23T13:31:22;3.72;;;1.45;;
80576;SDS011;69937;52.420;10.538;2024-03-23T13:36:22;2.63;;;1.33;;
80576;SDS011;69937;52.420;10.538;2024-03-23T13:41:23;3.42;;;2.17;;
80576;SDS011;69937;52.420;10.538;2024-03-23T13:46:24;2.83;;;1.95;;
80576;SDS011;69937;52.420;10.538;2024-03-23T13:51:25;5.30;;;2.35;;
80576;SDS011;69937;52.420;10.538;2024-03-23T13:56:29;4.40;;;2.22;;
80576;SDS011;69937;52.420;10.538;2024-03-23T14:01:29;3.35;;;1.83;;
80576;SDS011;69937;52.420;10.538;2024-03-23T14:06:30;2.28;;;1.42;;
80576;SDS011;69937;52.420;10.538;2024-03-23T14:11:31;5.13;;;1.63;;
80576;SDS011;69937;52.420;10.538;2024-03-23T14:16:31;4.30;;;2.00;;
80576;SDS011;69937;52.420;10.538;2024-03-23T14:21:33;3.65;;;1.60;;
80576;SDS011;69937;52.420;10.538;2024-03-23T14:26:36;2.80;;;0.75;;
80576;SDS011;69937;52.420;10.538;2024-03-23T14:31:37;7.53;;;2.80;;
80576;SDS011;69937;52.420;10.538;2024-03-23T14:36:37;6.43;;;2.22;;
80576;SDS011;69937;52.420;10.538;2024-03-23T14:41:38;7.78;;;2.78;;
80576;SDS011;69937;52.420;10.538;2024-03-23T14:46:39;4.38;;;0.80;;
80576;SDS011;69937;52.420;10.538;2024-03-23T14:51:39;3.17;;;1.20;;
80576;SDS011;69937;52.420;10.538;2024-03-23T14:56:40;2.85;;;1.15;;
80576;SDS011;69937;52.420;10.538;2024-03-23T15:01:41;3.08;;;1.35;;
80576;SDS011;69937;52.420;10.538;2024-03-23T15:06:41;2.28;;;1.20;;
80576;SDS011;69937;52.420;10.538;2024-03-23T15:11:42;2.63;;;1.60;;
80576;SDS011;69937;52.420;10.538;2024-03-23T15:16:43;6.25;;;2.58;;
80576;SDS011;69937;52.420;10.538;2024-03-23T15:21:44;2.90;;;2.33;;
80576;SDS011;69937;52.420;10.538;2024-03-23T15:26:44;5.50;;;2.38;;
80576;SDS011;69937;52.420;10.538;2024-03-23T15:31:45;2.88;;;2.67;;
80576;SDS011;69937;52.420;10.538;2024-03-23T15:36:46;3.33;;;2.65;;
80576;SDS011;69937;52.420;10.538;2024-03-23T15:41:48;4.03;;;3.20;;
80576;SDS011;69937;52.420;10.538;2024-03-23T15:46:48;5.15;;;1.88;;
80576;SDS011;69937;52.420;10.538;2024-03-23T15:51:50;1.70;;;1.60;;
80576;SDS011;69937;52.420;10.538;2024-03-23T15:56:50;1.85;;;1.20;;
80576;SDS011;69937;52.420;10.538;2024-03-23T16:01:51;1.50;;;1.30;;
80576;SDS011;69937;52.420;10.538;2024-03-23T16:06:52;2.83;;;1.38;;
80576;SDS011;69937;52.420;10.538;2024-03-23T16:11:52;2.03;;;1.67;;
80576;SDS011;69937;52.420;10.538;2024-03-23T16:16:53;2.67;;;1.58;;
80576;SDS011;69937;52.420;10.538;2024-03-23T16:21:53;2.92;;;2.40;;
80576;SDS011;69937;52.420;10.538;2024-03-23T16:26:55;2.67;;;1.80;;
80576;SDS011;69937;52.420;10.538;2024-03-23T16:31:56;3.35;;;2.22;;
80576;SDS011;69937;52.420;10.538;2024-03-23T16:36:56;1.73;;;1.63;;
80576;SDS011;69937;52.420;10.538;2024-03-23T16:41:57;3.50;;;2.50;;
80576;SDS011;69937;52.420;10.538;2024-03-23T16:46:57;2.70;;;2.35;;
80576;SDS011;69937;52.420;10.538;2024-03-23T16:51:58;2.90;;;2.70;;
80576;SDS011;69937;52.420;10.538;2024-03-23T16:56:58;2.30;;;2.20;;
80576;SDS011;69937;52.420;10.538;2024-03-23T17:01:59;3.63;;;3.33;;
80576;SDS011;69937;52.420;10.538;2024-03-23T17:07:00;4.97;;;4.22;;
80576;SDS011;69937;52.420;10.538;2024-03-23T17:12:00;3.53;;;3.22;;
80576;SDS011;69937;52.420;10.538;2024-03-23T17:17:01;5.15;;;3.60;;
80576;SDS011;69937;52.420;10.538;2024-03-23T17:22:01;3.97;;;3.72;;
80576;SDS011;69937;52.420;10.538;2024-03-23T17:27:02;3.53;;;3.33;;
80576;SDS011;69937;52.420;10.538;2024-03-23T17:32:03;4.57;;;4.25;;
80576;SDS011;69937;52.420;10.538;2024-03-23T17:37:04;9.07;;;5.40;;
80576;SDS011;69937;52.420;10.538;2024-03-23T17:42:04;5.80;;;5.22;;
80576;SDS011;69937;52.420;10.538;2024-03-23T17:47:05;5.18;;;4.88;;
80576;SDS011;69937;52.420;10.538;2024-03-23T17:52:09;4.97;;;4.68;;
80576;SDS011;69937;52.420;10.538;2024-03-23T17:57:13;4.47;;;4.10;;
80576;SDS011;69937;52.420;10.538;2024-03-23T18:02:14;6.05;;;5.45;;
80576;SDS011;69937;52.420;10.538;2024-03-23T18:07:16;7.65;;;5.85;;
80576;SDS011;69937;52.420;10.538;2024-03-23T18:12:16;7.05;;;6.35;;
80576;SDS011;69937;52.420;10.538;2024-03-23T18:17:18;9.80;;;6.53;;
80576;SDS011;69937;52.420;10.538;2024-03-23T18:22:19;7.95;;;6.07;;
80576;SDS011;69937;52.420;10.538;2024-03-23T18:27:19;5.30;;;4.97;;
80576;SDS011;69937;52.420;10.538;2024-03-23T18:32:20;5.30;;;4.95;;
80576;SDS011;69937;52.420;10.538;2024-03-23T18:37:20;6.45;;;6.03;;
80576;SDS011;69937;52.420;10.538;2024-03-23T18:42:21;5.47;;;5.07;;
80576;SDS011;69937;52.420;10.538;2024-03-23T18:47:22;8.13;;;5.38;;
80576;SDS011;69937;52.420;10.538;2024-03-23T18:52:22;5.97;;;5.50;;
80576;SDS011;69937;52.420;10.538;2024-03-23T18:57:23;5.75;;;5.28;;
80576;SDS011;69937;52.420;10.538;2024-03-23T19:02:23;6.93;;;6.32;;
80576;SDS011;69937;52.420;10.538;2024-03-23T19:07:24;6.30;;;5.57;;
80576;SDS011;69937;52.420;10.538;2024-03-23T19:12:25;5.85;;;5.45;;
80576;SDS011;69937;52.420;10.538;2024-03-23T19:17:26;6.50;;;6.00;;
80576;SDS011;69937;52.420;10.538;2024-03-23T19:22:27;5.13;;;4.82;;
80576;SDS011;69937;52.420;10.538;2024-03-23T19:27:27;5.90;;;5.50;;
80576;SDS011;69937;52.420;10.538;2024-03-23T19:32:28;6.28;;;5.97;;
80576;SDS011;69937;52.420;10.538;2024-03-23T19:37:29;6.30;;;5.90;;
80576;SDS011;69937;52.420;10.538;2024-03-23T19:42:30;6.85;;;6.45;;
80576;SDS011;69937;52.420;10.538;2024-03-23T19:47:31;6.60;;;6.10;;
80576;SDS011;69937;52.420;10.538;2024-03-23T19:52:31;6.72;;;6.22;;
80576;SDS011;69937;52.420;10.538;2024-03-23T19:57:32;6.65;;;6.05;;
80576;SDS011;69937;52.420;10.538;2024-03-23T20:02:32;6.82;;;6.18;;
80576;SDS011;69937;52.420;10.538;2024-03-23T20:07:33;7.18;;;6.50;;
80576;SDS011;69937;52.420;10.538;2024-03-23T20:12:33;6.70;;;6.15;;
80576;SDS011;69937;52.420;10.538;2024-03-23T20:17:34;5.97;;;5.60;;
80576;SDS011;69937;52.420;10.538;2024-03-23T20:22:35;6.30;;;5.93;;
80576;SDS011;69937;52.420;10.538;2024-03-23T20:27:35;6.07;;;5.78;;
80576;SDS011;69937;52.420;10.538;2024-03-23T20:32:36;4.97;;;4.68;;
80576;SDS011;69937;52.420;10.538;2024-03-23T20:37:37;7.35;;;6.63;;
80576;SDS011;69937;52.420;10.538;2024-03-23T20:42:37;6.70;;;6.20;;
80576;SDS011;69937;52.420;10.538;2024-03-23T20:47:38;6.28;;;5.85;;
80576;SDS011;69937;52.420;10.538;2024-03-23T20:52:38;5.70;;;5.13;;
80576;SDS011;69937;52.420;10.538;2024-03-23T20:57:39;6.70;;;6.18;;
80576;SDS011;69937;52.420;10.538;2024-03-23T21:02:40;6.65;;;6.28;;
80576;SDS011;69937;52.420;10.538;2024-03-23T21:07:41;6.53;;;6.10;;
80576;SDS011;69937;52.420;10.538;2024-03-23T21:12:41;6.32;;;5.90;;
80576;SDS011;69937;52.420;10.538;2024-03-23T21:17:42;9.32;;;6.35;;
80576;SDS011;69937;52.420;10.538;2024-03-23T21:22:42;7.13;;;6.63;;
80576;SDS011;69937;52.420;10.538;2024-03-23T21:27:43;6.45;;;6.05;;
80576;SDS011;69937;52.420;10.538;2024-03-23T21:32:44;7.47;;;7.05;;
80576;SDS011;69937;52.420;10.538;2024-03-23T21:37:44;6.63;;;6.13;;
80576;SDS011;69937;52.420;10.538;2024-03-23T21:42:45;6.75;;;6.35;;
80576;SDS011;69937;52.420;10.538;2024-03-23T21:47:46;7.15;;;6.43;;
80576;SDS011;69937;52.420;10.538;2024-03-23T21:52:46;6.25;;;5.85;;
80576;SDS011;69937;52.420;10.538;2024-03-23T21:57:47;6.60;;;6.20;;
80576;SDS011;69937;52.420;10.538;2024-03-23T22:02:48;7.32;;;6.63;;
80576;SDS011;69937;52.420;10.538;2024-03-23T22:07:49;8.00;;;7.30;;
80576;SDS011;69937;52.420;10.538;2024-03-23T22:12:49;8.38;;;7.78;;
80576;SDS011;69937;52.420;10.538;2024-03-23T22:17:50;7.20;;;6.60;;
80576;SDS011;69937;52.420;10.538;2024-03-23T22:22:51;6.63;;;6.13;;
80576;SDS011;69937;52.420;10.538;2024-03-23T22:27:51;7.57;;;6.97;;
80576;SDS011;69937;52.420;10.538;2024-03-23T22:32:52;6.63;;;6.22;;
80576;SDS011;69937;52.420;10.538;2024-03-23T22:37:54;10.15;;;6.72;;
80576;SDS011;69937;52.420;10.538;2024-03-23T22:42:55;9.20;;;6.07;;
80576;SDS011;69937;52.420;10.538;2024-03-23T22:47:55;7.10;;;6.60;;
80576;SDS011;69937;52.420;10.538;2024-03-23T22:52:56;7.78;;;7.22;;
80576;SDS011;69937;52.420;10.538;2024-03-23T22:57:57;5.63;;;5.22;;
80576;SDS011;69937;52.420;10.538;2024-03-23T23:02:57;6.63;;;6.22;;
80576;SDS011;69937;52.420;10.538;2024-03-23T23:07:58;6.20;;;5.90;;
80576;SDS011;69937;52.420;10.538;2024-03-23T23:12:58;7.78;;;7.07;;
80576;SDS011;69937;52.420;10.538;2024-03-23T23:17:59;6.90;;;6.50;;
80576;SDS011;69937;52.420;10.538;2024-03-23T23:23:00;6.68;;;6.28;;
80576;SDS011;69937;52.420;10.538;2024-03-23T23:28:00;8.68;;;7.90;;
80576;SDS011;69937;52.420;10.538;2024-03-23T23:33:01;7.30;;;6.70;;
80576;SDS011;69937;52.420;10.538;2024-03-23T23:38:02;8.05;;;7.55;;
80576;SDS011;69937;52.420;10.538;2024-03-23T23:43:03;8.27;;;7.63;;
80576;SDS011;69937;52.420;10.538;2024-03-23T23:48:04;9.15;;;8.23;;
80576;SDS011;69937;52.420;10.538;2024-03-23T23:53:06;8.23;;;7.60;;
80576;SDS011;69937;52.420;10.538;2024-03-23T23:58:06;5.80;;;5.50;;
